Alburnett, Iowa
Current Conditions -  °F | °C
As of 3:52 AM on Monday 20 Oct 2014 (Local Time) from KCID Reporting Station
Clear Clear  
Wind Chill: 43°   Ceiling: Unl
Heat Index: 48°   Visibility: 10mi
Dew Point: 45°   Wind: 10mph
Humidity: 89%   Direction: 300°WNW
Pressure: 29.87"   Gusts: NA
Location:  42.15°N, 91.62°W
Report Text: KCID 200852Z AUTO 30009KT 10SM CLR 09/07 A2987 RMK AO2 SLP115 T00890072 53004
Loading
Personal Weather Stations






























Interactive Weather Map
Tropical Storm Tracking
New forecast layout! Learn more

10-Day Weather Forecast

Advertisements
Track Severe Weather on mobile